Time;durP1;ratioP1;P1;durP2;ratioP2;P2;SDS_P1;SDS_P2;PMS_P1;PMS_P2;Temp;Humidity;BMP_temperature;BMP_pressure;BME280_temperature;BME280_humidity;BME280_pressure;Samples;Min_cycle;Max_cycle;Signal;HPM_P1;HPM_P2
2023/03/16 00:00:13;;;;;;;1.60;1.40;;;4.30;98.20;;;;;;5004780;28;20495;-75
2023/03/16 00:02:40;;;;;;;1.60;1.40;;;4.30;98.20;;;;;;4992882;28;20488;-75
2023/03/16 00:05:11;;;;;;;1.60;1.30;;;4.30;98.20;;;;;;5003428;28;20475;-74
2023/03/16 00:07:38;;;;;;;1.53;1.30;;;4.30;98.20;;;;;;4973409;28;20489;-74
2023/03/16 00:10:06;;;;;;;1.60;1.50;;;4.30;98.20;;;;;;4998681;28;20471;-74
2023/03/16 00:12:33;;;;;;;1.60;1.50;;;4.30;98.20;;;;;;4978937;28;20511;-74
2023/03/16 00:15:01;;;;;;;1.57;1.30;;;4.30;98.20;;;;;;5005889;28;20472;-74
2023/03/16 00:17:27;;;;;;;1.70;1.60;;;4.30;98.20;;;;;;4979877;28;20821;-74
2023/03/16 00:19:56;;;;;;;1.57;1.40;;;4.30;98.20;;;;;;5003072;28;20471;-75
2023/03/16 00:22:25;;;;;;;1.60;1.50;;;4.20;98.20;;;;;;4983368;28;20913;-73
2023/03/16 00:24:53;;;;;;;1.60;1.40;;;4.20;98.20;;;;;;5004205;28;21076;-74
2023/03/16 00:27:23;;;;;;;1.57;1.40;;;4.20;98.20;;;;;;4982204;28;20994;-75
2023/03/16 00:29:54;;;;;;;2.00;1.90;;;4.10;98.20;;;;;;5003656;28;20463;-74
2023/03/16 00:32:23;;;;;;;1.60;1.50;;;4.10;98.20;;;;;;4996158;28;20538;-74
2023/03/16 00:34:50;;;;;;;1.60;1.40;;;4.10;98.20;;;;;;5006757;28;20466;-75
2023/03/16 00:37:18;;;;;;;1.70;1.60;;;4.10;98.20;;;;;;4982490;28;20524;-74
2023/03/16 00:39:47;;;;;;;2.10;1.90;;;4.10;98.20;;;;;;5003050;28;20475;-75
2023/03/16 00:42:16;;;;;;;1.60;1.40;;;4.10;98.20;;;;;;4984133;28;20953;-74
2023/03/16 00:44:42;;;;;;;1.60;1.50;;;4.10;98.20;;;;;;4997384;28;20471;-75
2023/03/16 00:47:13;;;;;;;1.60;1.40;;;4.10;98.20;;;;;;4994141;28;20507;-76
2023/03/16 00:49:41;;;;;;;1.60;1.40;;;4.10;98.20;;;;;;5007272;28;20849;-74
2023/03/16 00:52:13;;;;;;;1.60;1.50;;;4.20;98.20;;;;;;4984521;28;21048;-75
2023/03/16 00:54:41;;;;;;;1.60;1.40;;;4.20;98.20;;;;;;5002267;28;20491;-74
2023/03/16 00:57:11;;;;;;;1.53;1.40;;;4.20;98.20;;;;;;4979934;28;20544;-75
2023/03/16 00:59:38;;;;;;;1.60;1.40;;;4.20;98.20;;;;;;5001729;28;20732;-74
2023/03/16 01:02:05;;;;;;;1.53;1.40;;;4.20;98.20;;;;;;4981641;28;21010;-74
2023/03/16 01:04:33;;;;;;;1.60;1.40;;;4.20;98.20;;;;;;4998560;28;20463;-74
2023/03/16 01:07:00;;;;;;;1.60;1.40;;;4.20;98.20;;;;;;4983088;28;20559;-75
2023/03/16 01:09:26;;;;;;;1.60;1.40;;;4.20;98.20;;;;;;4988789;28;20495;-74
2023/03/16 01:11:53;;;;;;;1.60;1.40;;;4.20;98.20;;;;;;4986914;28;20485;-75
2023/03/16 01:14:23;;;;;;;1.60;1.40;;;4.20;98.20;;;;;;4999268;28;20483;-75
2023/03/16 01:16:50;;;;;;;1.60;1.50;;;4.30;98.20;;;;;;4999294;28;20495;-74
2023/03/16 01:19:17;;;;;;;1.60;1.40;;;4.30;98.20;;;;;;5004345;28;20464;-75
2023/03/16 01:21:44;;;;;;;1.60;1.40;;;4.20;98.20;;;;;;4995984;28;20492;-75
2023/03/16 01:24:11;;;;;;;1.63;1.53;;;4.30;98.20;;;;;;5005749;28;20464;-75
2023/03/16 01:26:37;;;;;;;1.60;1.50;;;4.30;98.20;;;;;;4995123;28;20484;-75
2023/03/16 01:29:04;;;;;;;1.57;1.30;;;4.30;98.20;;;;;;5005906;28;20488;-74
2023/03/16 01:31:32;;;;;;;1.60;1.50;;;4.20;98.20;;;;;;4999064;28;20489;-75
2023/03/16 01:33:59;;;;;;;1.60;1.40;;;4.20;98.20;;;;;;5002446;28;20509;-73
2023/03/16 01:36:26;;;;;;;2.43;2.23;;;4.20;98.20;;;;;;4996647;28;20502;-75
2023/03/16 01:38:53;;;;;;;2.73;2.53;;;4.20;98.20;;;;;;5004664;28;20471;-75
2023/03/16 01:41:20;;;;;;;1.60;1.40;;;4.20;98.20;;;;;;4996436;28;20634;-75
2023/03/16 01:43:47;;;;;;;1.60;1.40;;;4.20;98.20;;;;;;5002275;28;20476;-75
2023/03/16 01:46:20;;;;;;;1.60;1.40;;;4.20;98.20;;;;;;4995653;28;20495;-74
2023/03/16 01:49:08;;;;;;;1.60;1.40;;;4.10;98.20;;;;;;5002573;28;20487;-75
2023/03/16 01:51:40;;;;;;;1.60;1.50;;;4.10;98.20;;;;;;4993727;28;21049;-75
2023/03/16 01:54:13;;;;;;;1.60;1.40;;;4.10;98.20;;;;;;5005202;28;20468;-74
2023/03/16 01:56:44;;;;;;;1.53;1.40;;;4.00;98.20;;;;;;4998825;28;20488;-74
2023/03/16 01:59:16;;;;;;;1.60;1.40;;;4.00;98.20;;;;;;5000605;28;20461;-74
2023/03/16 02:01:43;;;;;;;1.60;1.30;;;4.00;98.20;;;;;;4995455;28;21032;-75
2023/03/16 02:04:21;;;;;;;1.60;1.40;;;4.00;98.20;;;;;;5004859;28;20468;-74
2023/03/16 02:06:49;;;;;;;1.60;1.40;;;4.00;98.20;;;;;;4973832;28;20488;-74
2023/03/16 02:09:16;;;;;;;1.60;1.40;;;4.00;98.20;;;;;;4995717;28;20480;-74
2023/03/16 02:11:43;;;;;;;1.60;1.40;;;4.00;98.20;;;;;;4998525;28;20846;-74
2023/03/16 02:14:11;;;;;;;1.57;1.37;;;4.00;98.20;;;;;;5002848;28;20544;-74
2023/03/16 02:16:39;;;;;;;1.57;1.40;;;4.00;98.20;;;;;;4994536;28;20484;-73
2023/03/16 02:19:11;;;;;;;1.60;1.40;;;4.00;98.20;;;;;;5003257;28;20475;-74
2023/03/16 02:21:48;;;;;;;1.60;1.50;;;4.00;98.20;;;;;;4998181;28;20490;-74
2023/03/16 02:24:15;;;;;;;5.30;4.90;;;4.00;98.20;;;;;;5000243;28;20463;-75
2023/03/16 02:26:47;;;;;;;1.60;1.40;;;4.00;98.20;;;;;;4997198;28;20496;-75
2023/03/16 02:29:24;;;;;;;1.57;1.40;;;4.00;98.20;;;;;;4998598;28;21355;-75
2023/03/16 02:31:54;;;;;;;1.60;1.40;;;4.00;98.20;;;;;;4996559;28;20534;-75
2023/03/16 02:34:21;;;;;;;1.60;1.40;;;4.00;98.20;;;;;;5003475;28;20796;-74
2023/03/16 02:36:51;;;;;;;1.60;1.40;;;4.00;98.20;;;;;;4995045;28;20492;-75
2023/03/16 02:39:17;;;;;;;1.60;1.40;;;4.00;98.20;;;;;;4999159;28;20525;-75
2023/03/16 02:41:45;;;;;;;1.60;1.40;;;4.00;98.20;;;;;;4996804;28;21005;-75
2023/03/16 02:44:15;;;;;;;1.70;1.60;;;4.00;98.20;;;;;;5002235;28;20464;-75
2023/03/16 02:46:46;;;;;;;1.60;1.40;;;4.00;98.20;;;;;;4996964;28;21111;-75
2023/03/16 02:49:18;;;;;;;1.60;1.50;;;4.00;98.20;;;;;;5003833;28;20499;-74
2023/03/16 02:51:46;;;;;;;1.70;1.60;;;4.00;98.20;;;;;;4994181;28;20478;-76
2023/03/16 02:54:13;;;;;;;1.60;1.40;;;4.00;98.20;;;;;;5004252;28;20468;-76
2023/03/16 02:56:40;;;;;;;1.60;1.40;;;4.00;98.20;;;;;;4992743;28;20787;-76
2023/03/16 02:59:07;;;;;;;1.60;1.40;;;4.00;98.20;;;;;;5003586;28;20522;-75
2023/03/16 03:01:35;;;;;;;1.60;1.40;;;4.00;98.20;;;;;;4997093;28;20486;-75
2023/03/16 03:04:02;;;;;;;1.60;1.40;;;4.10;98.20;;;;;;5001988;28;20468;-76
2023/03/16 03:06:31;;;;;;;1.60;1.40;;;4.10;98.20;;;;;;4989012;28;20880;-72
2023/03/16 03:08:57;;;;;;;1.57;1.40;;;4.10;98.20;;;;;;5002277;28;20495;-73
2023/03/16 03:11:24;;;;;;;1.60;1.40;;;4.10;98.20;;;;;;4996924;28;20494;-74
2023/03/16 03:13:52;;;;;;;2.80;2.60;;;4.10;98.20;;;;;;4998974;28;20472;-73
2023/03/16 03:16:18;;;;;;;1.60;1.40;;;4.10;98.20;;;;;;4995615;28;20494;-74
2023/03/16 03:18:45;;;;;;;1.60;1.40;;;4.10;98.20;;;;;;5004273;28;20469;-75
2023/03/16 03:21:12;;;;;;;1.60;1.40;;;4.10;98.20;;;;;;4993055;28;20496;-74
2023/03/16 03:23:40;;;;;;;1.60;1.40;;;4.10;98.20;;;;;;5002350;28;20471;-74
2023/03/16 03:26:07;;;;;;;1.57;1.40;;;4.10;98.20;;;;;;4993758;28;20500;-74
2023/03/16 03:28:34;;;;;;;1.57;1.40;;;4.10;98.20;;;;;;5002478;28;20484;-73
2023/03/16 03:31:01;;;;;;;1.60;1.40;;;4.00;98.20;;;;;;4994150;28;20464;-74
2023/03/16 03:33:28;;;;;;;1.67;1.57;;;4.00;98.20;;;;;;5004320;28;20492;-74
2023/03/16 03:35:56;;;;;;;1.57;1.30;;;4.00;98.20;;;;;;4992920;28;20459;-73
2023/03/16 03:38:22;;;;;;;1.53;1.40;;;4.00;98.20;;;;;;5004786;28;20492;-75
2023/03/16 03:40:52;;;;;;;1.60;1.40;;;4.00;98.20;;;;;;4993211;28;20468;-74
2023/03/16 03:43:18;;;;;;;1.60;1.50;;;4.00;98.20;;;;;;5006231;28;20773;-74
2023/03/16 03:45:45;;;;;;;1.53;1.40;;;4.00;98.20;;;;;;5002696;28;21005;-76
2023/03/16 03:48:12;;;;;;;1.60;1.40;;;4.00;98.20;;;;;;4977782;28;20573;-74
2023/03/16 03:50:39;;;;;;;1.53;1.40;;;4.00;98.20;;;;;;5004913;28;20496;-74
2023/03/16 03:53:06;;;;;;;1.60;1.40;;;4.00;98.20;;;;;;4999523;28;20491;-75
2023/03/16 03:55:32;;;;;;;1.57;1.40;;;4.00;98.20;;;;;;5007365;28;20468;-75
2023/03/16 03:58:01;;;;;;;1.60;1.50;;;4.00;98.20;;;;;;4995484;28;20502;-74
2023/03/16 04:00:27;;;;;;;1.60;1.40;;;4.00;98.20;;;;;;5006953;28;20467;-74
2023/03/16 04:02:54;;;;;;;1.60;1.40;;;4.00;98.20;;;;;;4998932;28;20488;-76
2023/03/16 04:05:21;;;;;;;1.57;1.40;;;4.00;98.20;;;;;;5007216;28;20472;-74
2023/03/16 04:07:49;;;;;;;2.27;2.07;;;4.00;98.20;;;;;;4997484;28;20487;-74
2023/03/16 04:10:16;;;;;;;1.60;1.40;;;3.90;98.20;;;;;;5007201;28;20488;-73
2023/03/16 04:12:43;;;;;;;1.60;1.50;;;3.90;98.20;;;;;;4996143;28;20507;-74
2023/03/16 04:15:12;;;;;;;1.60;1.50;;;3.90;98.20;;;;;;5003242;28;20476;-73
2023/03/16 04:17:39;;;;;;;3.60;3.40;;;3.90;98.20;;;;;;5001031;28;20516;-73
2023/03/16 04:20:11;;;;;;;1.63;1.53;;;3.90;98.20;;;;;;5004086;28;20495;-72
2023/03/16 04:22:38;;;;;;;1.60;1.40;;;3.90;98.20;;;;;;5003079;28;20515;-73
2023/03/16 04:25:05;;;;;;;1.50;1.40;;;3.90;98.20;;;;;;5011032;28;20463;-74
2023/03/16 04:27:35;;;;;;;1.60;1.40;;;3.90;98.20;;;;;;4997530;28;20554;-73
2023/03/16 04:30:02;;;;;;;3.50;3.30;;;3.90;98.20;;;;;;5008106;28;20499;-73
2023/03/16 04:32:30;;;;;;;1.60;1.33;;;3.90;98.20;;;;;;4999386;28;20484;-71
2023/03/16 04:34:57;;;;;;;1.60;1.40;;;3.90;98.20;;;;;;5007000;28;21030;-73
2023/03/16 04:37:24;;;;;;;1.60;1.40;;;3.90;98.20;;;;;;5000081;28;20490;-73
2023/03/16 04:39:50;;;;;;;1.60;1.50;;;3.90;98.20;;;;;;5008933;28;21012;-73
2023/03/16 04:42:17;;;;;;;1.60;1.47;;;3.90;98.20;;;;;;4999528;28;20479;-73
2023/03/16 04:44:44;;;;;;;1.60;1.40;;;4.00;98.20;;;;;;5009378;28;20470;-74
2023/03/16 04:47:11;;;;;;;1.60;1.50;;;4.00;98.20;;;;;;4996338;28;20509;-73
2023/03/16 04:49:39;;;;;;;1.60;1.40;;;4.00;98.20;;;;;;5007360;28;20494;-73
2023/03/16 04:52:06;;;;;;;1.60;1.37;;;4.00;98.20;;;;;;4996757;28;20479;-73
2023/03/16 04:54:33;;;;;;;1.60;1.40;;;4.00;98.20;;;;;;5006544;28;20470;-73
2023/03/16 04:57:02;;;;;;;1.57;1.40;;;4.00;98.20;;;;;;4995890;28;20486;-73
2023/03/16 04:59:29;;;;;;;1.53;1.40;;;4.00;98.20;;;;;;5006002;28;20463;-73
2023/03/16 05:01:56;;;;;;;1.60;1.40;;;4.10;98.20;;;;;;4996255;28;20487;-73
2023/03/16 05:04:23;;;;;;;1.60;1.50;;;4.10;98.20;;;;;;5008785;28;20886;-73
2023/03/16 05:06:52;;;;;;;1.60;1.40;;;4.10;98.20;;;;;;4999739;28;20492;-73
2023/03/16 05:09:19;;;;;;;1.60;1.40;;;4.10;98.20;;;;;;5005337;28;20488;-73
2023/03/16 05:11:46;;;;;;;1.57;1.40;;;4.10;98.20;;;;;;4996068;28;20480;-73
2023/03/16 05:14:13;;;;;;;1.60;1.50;;;4.10;98.20;;;;;;5005176;28;21202;-73
2023/03/16 05:16:40;;;;;;;1.60;1.50;;;4.10;98.20;;;;;;4997618;28;22532;-73
2023/03/16 05:19:07;;;;;;;1.60;1.47;;;4.10;98.20;;;;;;5003895;28;20491;-73
2023/03/16 05:21:36;;;;;;;1.60;1.50;;;4.10;98.20;;;;;;4997485;28;20495;-73
2023/03/16 05:24:05;;;;;;;1.60;1.40;;;4.10;98.20;;;;;;5005061;28;20460;-73
2023/03/16 05:26:32;;;;;;;1.60;1.50;;;4.10;98.20;;;;;;4990895;28;20489;-73
2023/03/16 05:28:59;;;;;;;1.60;1.40;;;4.10;98.20;;;;;;4994878;28;20569;-73
2023/03/16 05:31:26;;;;;;;1.57;1.40;;;4.10;98.20;;;;;;4990313;28;20488;-73
2023/03/16 05:33:53;;;;;;;1.60;1.40;;;4.10;98.20;;;;;;4993959;28;20980;-73
2023/03/16 05:36:20;;;;;;;1.60;1.40;;;4.10;98.20;;;;;;4997375;28;20492;-74
2023/03/16 05:38:47;;;;;;;1.57;1.40;;;4.10;98.20;;;;;;4995283;28;20463;-73
2023/03/16 05:41:17;;;;;;;1.60;1.40;;;4.10;98.20;;;;;;4991998;28;20551;-73
2023/03/16 05:43:43;;;;;;;1.57;1.43;;;4.10;98.20;;;;;;4995332;28;20474;-74
2023/03/16 05:46:10;;;;;;;1.60;1.40;;;4.10;98.20;;;;;;4991462;28;20484;-73
2023/03/16 05:48:37;;;;;;;1.60;1.50;;;4.10;98.20;;;;;;4990832;28;20491;-73
2023/03/16 05:51:04;;;;;;;1.70;1.60;;;4.20;98.20;;;;;;4992493;28;20518;-73
2023/03/16 05:53:31;;;;;;;1.60;1.40;;;4.20;98.20;;;;;;4989657;28;20976;-73
2023/03/16 05:56:00;;;;;;;1.60;1.40;;;4.20;98.20;;;;;;4994727;28;20471;-73
2023/03/16 05:58:28;;;;;;;1.57;1.40;;;4.20;98.20;;;;;;4988455;28;20484;-73
2023/03/16 06:00:55;;;;;;;1.60;1.40;;;4.20;98.20;;;;;;4993515;28;20456;-71
2023/03/16 06:03:22;;;;;;;1.57;1.30;;;4.20;98.20;;;;;;4990937;28;20478;-73
2023/03/16 06:05:48;;;;;;;1.60;1.40;;;4.20;98.20;;;;;;5001819;28;20551;-74
2023/03/16 06:08:15;;;;;;;1.60;1.40;;;4.20;98.20;;;;;;5007623;28;21122;-73
2023/03/16 06:10:42;;;;;;;1.60;1.40;;;4.30;98.20;;;;;;5006531;28;20494;-73
2023/03/16 06:13:09;;;;;;;1.60;1.40;;;4.30;98.20;;;;;;4996704;28;20495;-73
2023/03/16 06:15:37;;;;;;;1.60;1.47;;;4.30;98.20;;;;;;4998199;28;20475;-73
2023/03/16 06:18:04;;;;;;;1.53;1.30;;;4.30;98.20;;;;;;4989775;28;20484;-73
2023/03/16 06:20:30;;;;;;;1.60;1.40;;;4.30;98.20;;;;;;5005155;28;20457;-73
2023/03/16 06:22:57;;;;;;;1.60;1.50;;;4.30;98.20;;;;;;4974576;28;20982;-73
2023/03/16 06:25:24;;;;;;;1.57;1.30;;;4.30;98.20;;;;;;5005290;28;20527;-73
2023/03/16 06:27:51;;;;;;;1.60;1.50;;;4.40;98.20;;;;;;4973205;28;20566;-73
2023/03/16 06:30:18;;;;;;;1.60;1.40;;;4.40;98.20;;;;;;5003421;28;20491;-73
2023/03/16 06:32:46;;;;;;;1.60;1.40;;;4.40;98.20;;;;;;4975323;28;20531;-74
2023/03/16 06:35:13;;;;;;;1.53;1.30;;;4.50;98.20;;;;;;4997572;28;20990;-73
2023/03/16 06:37:40;;;;;;;1.60;1.30;;;4.50;98.20;;;;;;4974340;28;20492;-73
2023/03/16 06:40:08;;;;;;;1.60;1.30;;;4.50;98.20;;;;;;4999939;28;20464;-73
2023/03/16 06:42:35;;;;;;;1.57;1.40;;;4.50;98.20;;;;;;4996994;28;20686;-73
2023/03/16 06:45:02;;;;;;;1.60;1.30;;;4.60;98.20;;;;;;5001078;28;20468;-73
2023/03/16 06:47:29;;;;;;;1.60;1.40;;;4.60;98.20;;;;;;4976763;28;20823;-73
2023/03/16 06:49:57;;;;;;;1.57;1.40;;;4.70;98.20;;;;;;5002539;28;20487;-73
2023/03/16 06:52:24;;;;;;;1.73;1.63;;;4.70;98.20;;;;;;4978012;28;20492;-73
2023/03/16 06:54:51;;;;;;;1.60;1.30;;;4.70;98.20;;;;;;4998628;28;21009;-74
2023/03/16 06:57:17;;;;;;;1.60;1.40;;;4.70;98.20;;;;;;4979693;28;20913;-73
2023/03/16 06:59:44;;;;;;;1.60;1.40;;;4.80;98.20;;;;;;4998255;28;20476;-76
2023/03/16 07:02:13;;;;;;;1.60;1.40;;;4.80;98.20;;;;;;4981320;28;20500;-73
2023/03/16 07:04:40;;;;;;;1.60;1.30;;;4.90;98.20;;;;;;4994544;28;20475;-73
2023/03/16 07:07:10;;;;;;;1.57;1.30;;;4.90;98.20;;;;;;4979893;28;20496;-72
2023/03/16 07:09:37;;;;;;;1.53;1.30;;;4.90;98.20;;;;;;4997540;28;20982;-73
2023/03/16 07:12:04;;;;;;;1.60;1.30;;;5.00;98.20;;;;;;4980858;28;21013;-73
2023/03/16 07:14:31;;;;;;;1.60;1.40;;;4.90;98.20;;;;;;4995192;28;20495;-73
2023/03/16 07:16:58;;;;;;;1.80;1.70;;;5.00;98.20;;;;;;4980578;28;20575;-72
2023/03/16 07:19:25;;;;;;;1.60;1.30;;;5.00;98.20;;;;;;4994690;28;21137;-73
2023/03/16 07:21:52;;;;;;;1.60;1.30;;;5.10;98.20;;;;;;4977383;28;20490;-73
2023/03/16 07:24:21;;;;;;;1.60;1.50;;;5.10;98.20;;;;;;4992511;28;20642;-73
2023/03/16 07:26:48;;;;;;;1.53;1.30;;;5.10;98.20;;;;;;4987995;28;20480;-73
2023/03/16 07:29:15;;;;;;;1.60;1.43;;;5.10;98.20;;;;;;4994591;28;20890;-73
2023/03/16 07:31:43;;;;;;;1.50;1.30;;;5.20;98.20;;;;;;4987509;28;20503;-74
2023/03/16 07:34:10;;;;;;;1.50;1.30;;;5.20;98.20;;;;;;4996873;28;21301;-73
2023/03/16 07:36:37;;;;;;;1.57;1.30;;;5.30;98.20;;;;;;4979753;28;20495;-73
2023/03/16 07:39:05;;;;;;;1.60;1.30;;;5.30;98.20;;;;;;4987843;28;20874;-74
2023/03/16 07:41:33;;;;;;;1.60;1.30;;;5.40;98.20;;;;;;4977711;28;20611;-73
2023/03/16 07:44:00;;;;;;;1.70;1.60;;;5.40;98.20;;;;;;4987178;28;20962;-73
2023/03/16 07:46:26;;;;;;;1.57;1.30;;;5.50;98.20;;;;;;4981291;28;20489;-74
2023/03/16 07:48:53;;;;;;;1.60;1.40;;;5.50;98.20;;;;;;4983546;28;21347;-73
2023/03/16 07:51:20;;;;;;;1.50;1.30;;;5.60;98.20;;;;;;4987676;28;20519;-72
2023/03/16 07:53:47;;;;;;;1.60;1.40;;;5.60;98.20;;;;;;4997571;28;20475;-74
2023/03/16 07:56:13;;;;;;;1.60;1.40;;;5.70;98.20;;;;;;4981971;28;20531;-73
2023/03/16 07:58:41;;;;;;;1.50;1.20;;;5.80;98.20;;;;;;4985749;28;20475;-73
2023/03/16 08:01:09;;;;;;;1.53;1.30;;;5.80;98.20;;;;;;4981842;28;20493;-73
2023/03/16 08:03:36;;;;;;;1.57;1.30;;;5.90;98.20;;;;;;4983708;28;20848;-76
2023/03/16 08:06:04;;;;;;;1.57;1.30;;;5.90;98.20;;;;;;4986306;28;20475;-74
2023/03/16 08:08:31;;;;;;;1.57;1.20;;;6.00;98.20;;;;;;4984521;28;20492;-74
2023/03/16 08:10:58;;;;;;;1.50;1.30;;;6.00;98.20;;;;;;4985888;28;20994;-76
2023/03/16 08:13:26;;;;;;;2.70;2.50;;;6.10;98.20;;;;;;4983402;28;20989;-75
2023/03/16 08:15:57;;;;;;;1.57;1.30;;;6.10;98.20;;;;;;4987532;28;20465;-75
2023/03/16 08:18:25;;;;;;;1.60;1.33;;;6.20;98.20;;;;;;4983289;28;20717;-74
2023/03/16 08:20:52;;;;;;;1.50;1.30;;;6.30;98.20;;;;;;4988640;28;20492;-75
2023/03/16 08:23:20;;;;;;;1.53;1.20;;;6.30;98.20;;;;;;4981387;28;20579;-76
2023/03/16 08:25:47;;;;;;;1.60;1.30;;;6.40;98.20;;;;;;4992420;28;20560;-73
2023/03/16 08:28:15;;;;;;;1.57;1.33;;;6.40;98.20;;;;;;4997489;28;21063;-73
2023/03/16 08:30:47;;;;;;;1.50;1.30;;;6.40;98.20;;;;;;4999655;28;20483;-73
2023/03/16 08:33:16;;;;;;;1.53;1.30;;;6.50;98.20;;;;;;4987979;28;20486;-73
2023/03/16 08:35:44;;;;;;;1.60;1.30;;;6.50;98.20;;;;;;4999311;28;20464;-73
2023/03/16 08:38:11;;;;;;;1.53;1.30;;;6.60;98.20;;;;;;4993433;28;20938;-72
2023/03/16 08:40:41;;;;;;;1.53;1.20;;;6.70;98.20;;;;;;5002956;28;20775;-73
2023/03/16 08:43:07;;;;;;;1.53;1.20;;;6.70;98.20;;;;;;4976001;28;20484;-72
2023/03/16 08:45:34;;;;;;;1.60;1.30;;;6.70;98.20;;;;;;5000410;28;20985;-73
2023/03/16 08:48:01;;;;;;;1.57;1.30;;;6.70;98.20;;;;;;4969135;28;20534;-72
2023/03/16 08:50:29;;;;;;;1.53;1.20;;;6.80;98.20;;;;;;4999726;28;20827;-73
2023/03/16 08:52:56;;;;;;;1.60;1.30;;;6.80;98.20;;;;;;4971083;28;20496;-72
2023/03/16 08:55:23;;;;;;;1.60;1.30;;;6.80;98.20;;;;;;5002675;28;20475;-74
2023/03/16 08:57:50;;;;;;;1.50;1.20;;;6.80;98.20;;;;;;4971743;28;20586;-74
2023/03/16 09:00:19;;;;;;;2.03;1.80;;;6.90;98.20;;;;;;5004549;28;20594;-77
2023/03/16 09:02:46;;;;;;;1.50;1.20;;;6.90;98.20;;;;;;4991691;28;20552;-77
2023/03/16 09:05:17;;;;;;;2.70;2.50;;;6.90;98.20;;;;;;5003358;28;20488;-76
2023/03/16 09:07:45;;;;;;;1.53;1.20;;;6.90;98.20;;;;;;4974666;28;20491;-72
2023/03/16 09:10:14;;;;;;;2.07;1.87;;;6.90;98.10;;;;;;5002737;28;21126;-76
2023/03/16 09:12:42;;;;;;;1.50;1.20;;;7.00;98.20;;;;;;4975998;28;20485;-75
2023/03/16 09:15:10;;;;;;;1.50;1.20;;;7.00;98.20;;;;;;5001710;28;20502;-74
2023/03/16 09:17:38;;;;;;;1.53;1.30;;;7.10;98.20;;;;;;4975545;28;20489;-73
2023/03/16 09:20:08;;;;;;;1.50;1.20;;;7.20;98.20;;;;;;5001847;28;20584;-71
2023/03/16 09:22:35;;;;;;;2.03;1.83;;;7.30;98.00;;;;;;4991795;28;20572;-75
2023/03/16 09:25:04;;;;;;;3.57;3.27;;;7.40;97.40;;;;;;5001189;28;20528;-75
2023/03/16 09:27:31;;;;;;;1.50;1.20;;;7.60;97.30;;;;;;4976570;28;20496;-74
2023/03/16 09:29:59;;;;;;;1.57;1.20;;;7.70;96.50;;;;;;5001438;28;20475;-75
2023/03/16 09:32:26;;;;;;;1.50;1.20;;;7.80;96.20;;;;;;4994900;28;20773;-74
2023/03/16 09:34:53;;;;;;;1.60;1.20;;;7.90;95.90;;;;;;4999717;28;20468;-73
2023/03/16 09:37:20;;;;;;;1.50;1.13;;;7.90;95.50;;;;;;4977628;28;20500;-73
2023/03/16 09:39:48;;;;;;;1.53;1.20;;;8.00;95.50;;;;;;4999045;28;20497;-73
2023/03/16 09:42:20;;;;;;;2.33;2.13;;;8.10;96.10;;;;;;4979737;28;20745;-73
2023/03/16 09:44:59;;;;;;;1.50;1.20;;;8.20;95.60;;;;;;4996926;28;20496;-74
2023/03/16 09:47:29;;;;;;;1.50;1.10;;;8.40;95.30;;;;;;4976712;28;21241;-73
2023/03/16 09:49:58;;;;;;;1.53;1.20;;;8.50;95.30;;;;;;5000716;28;20457;-74
2023/03/16 09:52:34;;;;;;;1.50;1.10;;;8.70;94.60;;;;;;4977312;28;20488;-74
2023/03/16 09:55:07;;;;;;;1.57;1.00;;;8.80;94.20;;;;;;4998888;28;20464;-74
2023/03/16 09:57:39;;;;;;;1.57;1.10;;;8.90;93.90;;;;;;4975138;28;20894;-73
2023/03/16 10:00:16;;;;;;;1.50;1.10;;;9.00;94.00;;;;;;5001704;28;20588;-74
2023/03/16 10:02:56;;;;;;;1.60;1.20;;;9.00;93.10;;;;;;4973145;28;21072;-74
2023/03/16 10:05:26;;;;;;;1.60;1.27;;;9.10;93.10;;;;;;4999183;28;20703;-71
2023/03/16 10:08:03;;;;;;;1.53;1.10;;;9.20;91.90;;;;;;4967626;28;20485;-74
2023/03/16 10:10:46;;;;;;;1.57;1.10;;;9.10;92.00;;;;;;5000791;28;20456;-74
2023/03/16 10:13:30;;;;;;;1.57;1.10;;;9.00;92.40;;;;;;4969137;28;20570;-74
2023/03/16 10:16:01;;;;;;;1.50;1.10;;;9.00;93.10;;;;;;4987765;28;20910;-74
2023/03/16 10:18:32;;;;;;;1.50;1.10;;;9.00;92.50;;;;;;4985509;28;21031;-74
2023/03/16 10:20:59;;;;;;;1.50;1.20;;;9.10;92.90;;;;;;4990079;28;20791;-74
2023/03/16 10:23:27;;;;;;;1.53;1.20;;;9.00;92.10;;;;;;4986105;28;20862;-73
2023/03/16 10:25:55;;;;;;;1.57;1.20;;;9.00;92.20;;;;;;4989872;28;20464;-75
2023/03/16 10:28:26;;;;;;;1.60;1.13;;;9.10;93.20;;;;;;4974829;28;20481;-74
2023/03/16 10:30:55;;;;;;;1.53;1.10;;;9.30;92.40;;;;;;4990506;28;20471;-75
2023/03/16 10:33:25;;;;;;;1.60;1.20;;;9.40;92.00;;;;;;4983388;28;20464;-74
2023/03/16 10:35:57;;;;;;;1.50;1.10;;;9.40;91.10;;;;;;4989448;28;20468;-73
2023/03/16 10:38:37;;;;;;;1.70;1.43;;;9.40;91.40;;;;;;4982970;28;20880;-74
2023/03/16 10:41:06;;;;;;;1.53;1.10;;;9.50;91.40;;;;;;4988399;28;20949;-74
2023/03/16 10:43:35;;;;;;;1.50;1.10;;;9.70;90.10;;;;;;4986308;28;21607;-74
2023/03/16 10:46:02;;;;;;;1.53;1.10;;;9.80;89.60;;;;;;4990339;28;20472;-74
2023/03/16 10:48:32;;;;;;;1.53;1.10;;;9.90;90.00;;;;;;5000379;28;20869;-73
2023/03/16 10:51:02;;;;;;;1.57;1.10;;;9.90;89.00;;;;;;4989115;28;20467;-73
2023/03/16 10:53:31;;;;;;;1.50;1.10;;;10.00;88.20;;;;;;4985919;28;20470;-74
2023/03/16 10:56:00;;;;;;;1.60;1.20;;;10.20;88.40;;;;;;4990528;28;20571;-73
2023/03/16 10:58:31;;;;;;;1.50;1.10;;;10.40;88.60;;;;;;5005897;28;20495;-71
2023/03/16 11:01:00;;;;;;;1.50;1.10;;;10.60;87.40;;;;;;4988982;28;20456;-73
2023/03/16 11:03:30;;;;;;;1.50;1.00;;;10.80;87.30;;;;;;4999851;28;20468;-76
2023/03/16 11:05:59;;;;;;;4.47;1.77;;;10.90;85.80;;;;;;4989519;28;21005;-73
2023/03/16 11:08:27;;;;;;;1.53;1.10;;;11.10;85.90;;;;;;4998804;28;20487;-72
2023/03/16 11:10:57;;;;;;;1.50;1.00;;;11.20;84.80;;;;;;4987668;28;20961;-72
2023/03/16 11:13:31;;;;;;;1.53;1.10;;;11.40;86.10;;;;;;4984720;28;20546;-75
2023/03/16 11:16:04;;;;;;;2.40;2.20;;;11.80;85.30;;;;;;4988081;28;20542;-74
2023/03/16 11:18:32;;;;;;;1.53;1.03;;;12.20;83.90;;;;;;4985417;28;20983;-73
2023/03/16 11:21:06;;;;;;;1.50;1.00;;;12.40;81.40;;;;;;4988917;28;20464;-73
2023/03/16 11:23:36;;;;;;;1.50;1.00;;;12.40;80.90;;;;;;4985433;28;20475;-73
2023/03/16 11:26:07;;;;;;;1.53;1.00;;;12.30;80.90;;;;;;4987345;28;21089;-74
2023/03/16 11:28:37;;;;;;;1.50;1.00;;;12.20;81.80;;;;;;4985420;28;20499;-72
2023/03/16 11:31:17;;;;;;;1.50;1.10;;;12.10;81.50;;;;;;4992056;28;21038;-72
2023/03/16 11:33:43;;;;;;;1.50;1.10;;;12.00;81.80;;;;;;4997213;28;20455;-74
2023/03/16 11:36:26;;;;;;;1.50;1.00;;;12.00;82.00;;;;;;4990987;28;20929;-73
2023/03/16 11:39:04;;;;;;;2.30;1.67;;;11.90;82.10;;;;;;4997583;28;20617;-72
2023/03/16 11:41:41;;;;;;;1.50;1.00;;;12.00;82.80;;;;;;4984114;28;20507;-73
2023/03/16 11:44:15;;;;;;;1.50;1.00;;;12.10;82.60;;;;;;4990380;28;21291;-72
2023/03/16 11:46:53;;;;;;;1.50;1.10;;;12.10;82.30;;;;;;4980902;28;20534;-73
2023/03/16 11:49:51;;;;;;;1.53;1.10;;;12.20;82.40;;;;;;4990363;28;20543;-72
2023/03/16 11:52:27;;;;;;;1.50;1.00;;;12.10;81.60;;;;;;4973820;28;20485;-73
2023/03/16 11:55:06;;;;;;;1.50;1.00;;;12.10;82.10;;;;;;4994921;28;20474;-73
2023/03/16 11:57:43;;;;;;;1.50;1.00;;;12.10;82.10;;;;;;4973838;28;20668;-72
2023/03/16 12:00:35;;;;;;;1.50;1.00;;;12.20;81.30;;;;;;4996619;28;20463;-75
2023/03/16 12:03:49;;;;;;;1.50;1.00;;;12.30;82.50;;;;;;4987501;28;20487;-74
2023/03/16 12:06:28;;;;;;;1.50;1.00;;;12.70;82.20;;;;;;4962435;28;20787;-73
2023/03/16 12:09:34;;;;;;;1.50;1.00;;;12.90;80.80;;;;;;4988821;28;20585;-71
2023/03/16 12:12:11;;;;;;;1.50;1.00;;;13.10;80.30;;;;;;4976163;28;20563;-73
2023/03/16 12:14:43;;;;;;;1.80;1.20;;;13.00;80.20;;;;;;4998211;28;20974;-74
2023/03/16 12:17:14;;;;;;;1.50;1.00;;;12.90;80.70;;;;;;4973392;28;20575;-74
2023/03/16 12:19:49;;;;;;;1.50;1.00;;;12.70;80.50;;;;;;4997107;28;20962;-73
2023/03/16 12:22:21;;;;;;;1.50;1.10;;;12.60;81.30;;;;;;4978732;28;20488;-73
2023/03/16 12:24:49;;;;;;;1.60;1.50;;;12.50;81.30;;;;;;4997063;28;20468;-70
2023/03/16 12:27:21;;;;;;;1.50;1.00;;;12.60;82.30;;;;;;4992119;28;20496;-70
2023/03/16 12:29:58;;;;;;;1.50;1.00;;;12.50;81.90;;;;;;4997932;28;21043;-73
2023/03/16 12:32:35;;;;;;;1.50;1.00;;;12.30;81.60;;;;;;4973444;28;21001;-73
2023/03/16 12:35:16;;;;;;;1.50;1.00;;;12.10;82.10;;;;;;4999055;28;20859;-72
2023/03/16 12:37:48;;;;;;;1.50;1.00;;;12.00;82.60;;;;;;4973729;28;20497;-70
2023/03/16 12:40:28;;;;;;;1.50;1.00;;;12.00;82.80;;;;;;5002585;28;20832;-72
2023/03/16 12:43:09;;;;;;;1.50;1.10;;;12.00;82.60;;;;;;4988642;28;20479;-74
2023/03/16 12:45:43;;;;;;;1.50;1.00;;;12.00;83.00;;;;;;5000461;28;20500;-71
2023/03/16 12:48:19;;;;;;;1.50;1.00;;;11.90;82.90;;;;;;4993385;28;20567;-73
2023/03/16 12:50:53;;;;;;;1.50;1.00;;;11.90;83.00;;;;;;5001061;28;21873;-73
2023/03/16 12:53:42;;;;;;;1.50;1.00;;;11.80;83.60;;;;;;4971157;28;20574;-72
2023/03/16 12:56:11;;;;;;;1.50;1.10;;;11.90;83.90;;;;;;4988369;28;20523;-72
2023/03/16 12:58:42;;;;;;;1.50;1.00;;;11.90;83.90;;;;;;4986352;28;21018;-72
2023/03/16 13:01:12;;;;;;;1.50;1.00;;;12.00;83.50;;;;;;4991861;28;21294;-73
2023/03/16 13:03:39;;;;;;;1.50;1.00;;;12.00;83.30;;;;;;4997084;28;20456;-73
2023/03/16 13:06:16;;;;;;;1.97;1.80;;;12.10;83.40;;;;;;4986763;28;20941;-72